createdAt,value
2023-01-15T00:02:16.747Z,99829.25
2023-01-15T00:04:43.877Z,99823.06
2023-01-15T00:07:10.804Z,99839.88
2023-01-15T00:09:37.814Z,99828.38
2023-01-15T00:12:05.210Z,99843.31
2023-01-15T00:14:32.157Z,99836.28
2023-01-15T00:16:59.106Z,99837.69
2023-01-15T00:19:26.048Z,99831.72
2023-01-15T00:21:53.995Z,99835.31
2023-01-15T00:24:41.645Z,99830.84
2023-01-15T00:27:33.138Z,99839.09
2023-01-15T00:30:03.483Z,99846.78
2023-01-15T00:32:30.742Z,99843.94
2023-01-15T00:35:01.065Z,99850.03
2023-01-15T00:37:28.129Z,99845.03
2023-01-15T00:39:55.114Z,99835.50
2023-01-15T00:42:22.087Z,99844.13
2023-01-15T00:44:49.046Z,99837.41
2023-01-15T00:47:16.171Z,99838.63
2023-01-15T00:49:43.449Z,99843.22
2023-01-15T00:52:11.517Z,99844.69
2023-01-15T00:54:38.623Z,99843.75
2023-01-15T00:57:05.613Z,99857.31
2023-01-15T00:59:32.657Z,99851.63
2023-01-15T01:01:59.775Z,99847.97
2023-01-15T01:04:26.854Z,99847.59
2023-01-15T01:06:54.301Z,99835.00
2023-01-15T01:09:21.521Z,99833.19
2023-01-15T01:11:50.177Z,99840.38
2023-01-15T01:14:17.165Z,99831.97
2023-01-15T01:16:44.258Z,99826.38
2023-01-15T01:19:19.004Z,99825.38
2023-01-15T01:21:47.830Z,99829.03
2023-01-15T01:24:22.495Z,99821.03
2023-01-15T01:26:52.731Z,99836.34
2023-01-15T01:29:22.581Z,99830.00
2023-01-15T01:31:51.144Z,99834.91
2023-01-15T01:34:18.109Z,99841.03
2023-01-15T01:36:45.586Z,99834.69
2023-01-15T01:39:19.033Z,99844.84
2023-01-15T01:41:47.649Z,99840.66
2023-01-15T01:44:32.792Z,99846.94
2023-01-15T01:47:07.762Z,99840.16
2023-01-15T01:49:37.151Z,99836.28
2023-01-15T01:52:13.845Z,99820.81
2023-01-15T01:54:49.198Z,99824.34
2023-01-15T01:57:19.165Z,99816.88
2023-01-15T01:59:47.867Z,99822.44
2023-01-15T02:02:17.246Z,99834.25
2023-01-15T02:04:44.855Z,99823.53
2023-01-15T02:07:12.093Z,99818.38
2023-01-15T02:09:39.182Z,99812.72
2023-01-15T02:12:37.122Z,99828.34
2023-01-15T02:15:14.613Z,99824.59
2023-01-15T02:17:56.820Z,99832.75
2023-01-15T02:20:41.835Z,99832.81
2023-01-15T02:23:21.362Z,99834.28
2023-01-15T02:26:38.236Z,99830.81
2023-01-15T02:29:10.911Z,99832.91
2023-01-15T02:31:43.864Z,99830.97
2023-01-15T02:34:19.832Z,99826.28
2023-01-15T02:37:11.216Z,99837.41
2023-01-15T02:39:42.691Z,99824.63
2023-01-15T02:42:14.095Z,99831.19
2023-01-15T02:44:47.735Z,99840.09
2023-01-15T02:47:20.932Z,99825.50
2023-01-15T02:49:49.185Z,99830.66
2023-01-15T02:52:31.964Z,99839.81
2023-01-15T02:55:09.314Z,99828.47
2023-01-15T02:57:41.759Z,99839.91
2023-01-15T03:00:14.099Z,99835.16
2023-01-15T03:03:02.260Z,99832.91
2023-01-15T03:05:50.741Z,99841.66
2023-01-15T03:08:21.706Z,99839.50
2023-01-15T03:11:10.834Z,99847.81
2023-01-15T03:13:44.862Z,99843.34
2023-01-15T03:16:37.673Z,99840.06
2023-01-15T03:19:27.551Z,99837.94
2023-01-15T03:22:27.581Z,99832.38
2023-01-15T03:25:19.568Z,99839.97
2023-01-15T03:27:46.627Z,99829.31
2023-01-15T03:30:19.139Z,99833.72
2023-01-15T03:32:47.371Z,99832.53
2023-01-15T03:35:50.095Z,99828.97
2023-01-15T03:38:24.348Z,99833.63
2023-01-15T03:41:36.167Z,99839.91
2023-01-15T03:45:15.092Z,99851.28
2023-01-15T03:47:48.210Z,99838.56
2023-01-15T03:50:48.218Z,99835.13
2023-01-15T03:53:35.107Z,99843.38
2023-01-15T03:56:11.246Z,99847.34
2023-01-15T03:58:56.949Z,99851.19
2023-01-15T04:01:37.946Z,99838.66
2023-01-15T04:04:06.829Z,99850.53
2023-01-15T04:06:36.857Z,99852.88
2023-01-15T04:09:07.036Z,99840.41
2023-01-15T04:11:34.201Z,99842.06
2023-01-15T04:14:01.150Z,99845.41
2023-01-15T04:16:31.644Z,99846.94
2023-01-15T04:18:59.237Z,99865.03
2023-01-15T04:21:26.738Z,99863.44
2023-01-15T04:23:53.768Z,99875.16
2023-01-15T04:26:20.931Z,99877.22
2023-01-15T04:28:48.005Z,99878.00
2023-01-15T04:31:15.786Z,99859.16
2023-01-15T04:33:42.789Z,99869.56
2023-01-15T04:36:10.310Z,99879.38
2023-01-15T04:38:38.519Z,99860.78
2023-01-15T04:41:24.961Z,99861.00
2023-01-15T04:44:07.298Z,99856.75
2023-01-15T04:46:46.224Z,99867.00
2023-01-15T04:49:16.900Z,99862.81
2023-01-15T04:51:46.468Z,99858.09
2023-01-15T04:54:15.904Z,99861.69
2023-01-15T04:56:46.863Z,99850.13
2023-01-15T04:59:17.036Z,99847.28
2023-01-15T05:01:58.030Z,99843.84
2023-01-15T05:04:30.310Z,99832.53
2023-01-15T05:06:57.276Z,99822.28
2023-01-15T05:09:24.277Z,99846.22
2023-01-15T05:12:03.508Z,99848.84
2023-01-15T05:14:30.535Z,99842.44
2023-01-15T05:16:57.690Z,99875.44
2023-01-15T05:19:24.614Z,99874.72
2023-01-15T05:21:51.615Z,99889.56
2023-01-15T05:24:19.696Z,99870.34
2023-01-15T05:26:46.971Z,99869.44
2023-01-15T05:29:14.233Z,99861.84
2023-01-15T05:31:42.774Z,99851.97
2023-01-15T05:34:10.411Z,99866.56
2023-01-15T05:36:41.116Z,99840.03
2023-01-15T05:39:08.970Z,99835.22
2023-01-15T05:41:54.997Z,99826.41
2023-01-15T05:44:28.515Z,99840.66
2023-01-15T05:47:00.326Z,99858.81
2023-01-15T05:49:31.207Z,99857.47
2023-01-15T05:52:00.647Z,99868.69
2023-01-15T05:54:34.601Z,99872.06
2023-01-15T05:57:02.030Z,99878.78
2023-01-15T05:59:31.272Z,99865.91
2023-01-15T06:01:58.474Z,99869.75
2023-01-15T06:04:25.917Z,99869.19
2023-01-15T06:06:54.932Z,99874.16
2023-01-15T06:09:23.211Z,99878.78
2023-01-15T06:11:50.658Z,99872.16
2023-01-15T06:14:18.035Z,99884.41
2023-01-15T06:16:45.150Z,99872.38
2023-01-15T06:19:13.735Z,99866.88
2023-01-15T06:21:41.214Z,99871.28
2023-01-15T06:24:09.122Z,99864.75
2023-01-15T06:26:36.294Z,99860.38
2023-01-15T06:29:03.270Z,99861.94
2023-01-15T06:31:30.569Z,99853.50
2023-01-15T06:33:57.723Z,99856.88
2023-01-15T06:36:26.804Z,99861.59
2023-01-15T06:38:53.933Z,99858.44
2023-01-15T06:41:43.499Z,99861.47
2023-01-15T06:44:36.341Z,99874.75
2023-01-15T06:47:20.551Z,99876.94
2023-01-15T06:49:54.055Z,99876.25
2023-01-15T06:52:22.230Z,99877.06
2023-01-15T06:54:49.172Z,99882.16
2023-01-15T06:57:16.409Z,99890.97
2023-01-15T06:59:43.529Z,99912.84
2023-01-15T07:02:12.272Z,99909.63
2023-01-15T07:04:39.274Z,99915.75
2023-01-15T07:07:06.386Z,99914.47
2023-01-15T07:09:33.500Z,99920.13
2023-01-15T07:12:00.526Z,99923.13
2023-01-15T07:14:32.087Z,99923.72
2023-01-15T07:16:59.381Z,99924.06
2023-01-15T07:19:27.709Z,99911.72
2023-01-15T07:21:55.022Z,99912.75
2023-01-15T07:24:22.740Z,99914.59
2023-01-15T07:26:49.777Z,99922.78
2023-01-15T07:29:16.773Z,99929.69
2023-01-15T07:31:47.749Z,99919.09
2023-01-15T07:34:15.696Z,99931.66
2023-01-15T07:36:46.533Z,99934.13
2023-01-15T07:39:13.712Z,99938.97
2023-01-15T07:41:59.463Z,99936.53
2023-01-15T07:44:45.102Z,99929.81
2023-01-15T07:47:48.231Z,99929.75
2023-01-15T07:50:22.391Z,99922.22
2023-01-15T07:52:51.994Z,99930.84
2023-01-15T07:55:19.944Z,99923.72
2023-01-15T07:57:47.062Z,99925.13
2023-01-15T08:00:20.665Z,99933.88
2023-01-15T08:02:49.898Z,99937.34
2023-01-15T08:05:18.014Z,99940.06
2023-01-15T08:07:45.445Z,99917.38
2023-01-15T08:10:13.971Z,99920.28
2023-01-15T08:13:00.001Z,99912.28
2023-01-15T08:15:27.199Z,99916.56
2023-01-15T08:17:54.275Z,99913.44
2023-01-15T08:20:26.388Z,99916.56
2023-01-15T08:22:53.873Z,99925.31
2023-01-15T08:25:24.301Z,99923.91
2023-01-15T08:27:52.129Z,99919.34
2023-01-15T08:30:25.602Z,99919.44
2023-01-15T08:32:52.917Z,99926.41
2023-01-15T08:35:19.985Z,99906.03
2023-01-15T08:37:47.039Z,99905.69
2023-01-15T08:40:14.109Z,99904.63
2023-01-15T08:42:41.286Z,99899.63
2023-01-15T08:45:09.412Z,99913.75
2023-01-15T08:47:37.415Z,99913.44
2023-01-15T08:50:07.674Z,99926.50
2023-01-15T08:52:34.766Z,99931.41
2023-01-15T08:55:01.731Z,99942.28
2023-01-15T08:57:28.639Z,99933.88
2023-01-15T08:59:55.891Z,99937.78
2023-01-15T09:02:22.837Z,99933.06
2023-01-15T09:04:49.833Z,99955.06
2023-01-15T09:07:16.945Z,99968.44
2023-01-15T09:09:43.945Z,99976.91
2023-01-15T09:12:11.000Z,99972.41
2023-01-15T09:14:58.564Z,99991.63
2023-01-15T09:17:24.899Z,99979.69
2023-01-15T09:19:52.196Z,99977.69
2023-01-15T09:22:19.299Z,99978.00
2023-01-15T09:24:46.563Z,99988.44
2023-01-15T09:27:15.079Z,99996.13
2023-01-15T09:29:42.063Z,100007.03
2023-01-15T09:32:10.567Z,99999.94
2023-01-15T09:34:37.622Z,100020.31
2023-01-15T09:37:04.641Z,99997.88
2023-01-15T09:39:31.927Z,100003.19
2023-01-15T09:42:16.225Z,99992.34
2023-01-15T09:45:14.175Z,99999.22
2023-01-15T09:48:16.237Z,100006.31
2023-01-15T09:51:37.666Z,100004.53
2023-01-15T09:54:23.286Z,100022.47
2023-01-15T09:56:50.485Z,100000.13
2023-01-15T09:59:35.026Z,100001.25
2023-01-15T10:02:15.143Z,99986.31
2023-01-15T10:04:48.975Z,99986.47
2023-01-15T10:07:36.194Z,99994.28
2023-01-15T10:10:11.942Z,99994.94
2023-01-15T10:12:40.270Z,99998.38
2023-01-15T10:15:28.264Z,99999.38
2023-01-15T10:17:59.196Z,99992.78
2023-01-15T10:21:13.462Z,99988.63
2023-01-15T10:24:23.394Z,100002.13
2023-01-15T10:26:57.414Z,100012.81
2023-01-15T10:29:45.474Z,100017.34
2023-01-15T10:33:01.453Z,100019.78
2023-01-15T10:35:48.091Z,100008.50
2023-01-15T10:38:26.609Z,100002.38
2023-01-15T10:41:41.532Z,100008.22
2023-01-15T10:44:25.327Z,100021.69
2023-01-15T10:47:01.577Z,100023.66
2023-01-15T10:49:30.371Z,100015.66
2023-01-15T10:52:06.220Z,100018.66
2023-01-15T10:54:42.964Z,100018.94
2023-01-15T10:57:21.828Z,100025.03
2023-01-15T10:59:57.321Z,100022.31
2023-01-15T11:02:44.714Z,100011.50
2023-01-15T11:05:20.980Z,100006.19
2023-01-15T11:08:14.092Z,100000.78
2023-01-15T11:10:41.373Z,100001.38
2023-01-15T11:13:42.740Z,100001.69
2023-01-15T11:16:36.338Z,99993.38
2023-01-15T11:19:25.055Z,99989.63
2023-01-15T11:21:53.628Z,99999.03
2023-01-15T11:24:21.021Z,99990.38
2023-01-15T11:26:54.842Z,100014.94
2023-01-15T11:29:44.390Z,99992.91
2023-01-15T11:32:32.860Z,100001.06
2023-01-15T11:35:04.518Z,100012.47
2023-01-15T11:37:31.622Z,100012.81
2023-01-15T11:40:06.354Z,99996.72
2023-01-15T11:42:55.123Z,99993.13
2023-01-15T11:45:43.101Z,99984.16
2023-01-15T11:48:38.981Z,99995.72
2023-01-15T11:51:09.014Z,99997.81
2023-01-15T11:53:53.346Z,99999.72
2023-01-15T11:56:25.357Z,99981.56
2023-01-15T11:58:56.997Z,99986.41
2023-01-15T12:01:39.311Z,99983.84
2023-01-15T12:04:24.688Z,99988.59
2023-01-15T12:06:51.830Z,99973.38
2023-01-15T12:10:02.950Z,99964.25
2023-01-15T12:12:34.107Z,99967.28
2023-01-15T12:15:13.160Z,99975.13
2023-01-15T12:18:40.286Z,99965.53
2023-01-15T12:21:21.912Z,99944.88
2023-01-15T12:25:10.264Z,99972.41
2023-01-15T12:28:15.048Z,99954.47
2023-01-15T12:31:20.004Z,99965.41
2023-01-15T12:34:03.195Z,99961.50
2023-01-15T12:36:48.894Z,99959.56
2023-01-15T12:39:32.531Z,99956.34
2023-01-15T12:42:23.534Z,99964.06
2023-01-15T12:45:03.989Z,99963.56
2023-01-15T12:47:43.552Z,99962.06
2023-01-15T12:50:45.029Z,99958.25
2023-01-15T12:53:30.300Z,99952.16
2023-01-15T12:56:05.303Z,99971.00
2023-01-15T12:58:55.054Z,99957.50
2023-01-15T13:01:53.084Z,99963.25
2023-01-15T13:04:54.273Z,99977.50
2023-01-15T13:07:36.085Z,99973.13
2023-01-15T13:10:12.750Z,99981.78
2023-01-15T13:12:40.031Z,99981.72
2023-01-15T13:15:07.766Z,99976.16
2023-01-15T13:17:55.621Z,99980.50
2023-01-15T13:20:32.190Z,99975.94
2023-01-15T13:23:35.975Z,99962.53
2023-01-15T13:26:41.999Z,99973.31
2023-01-15T13:29:23.493Z,99970.22
2023-01-15T13:32:10.565Z,99973.53
2023-01-15T13:34:52.441Z,99984.69
2023-01-15T13:37:27.516Z,99984.13
2023-01-15T13:40:09.572Z,99957.97
2023-01-15T13:42:38.915Z,99969.50
2023-01-15T13:45:27.716Z,99965.25
2023-01-15T13:48:02.835Z,99980.38
2023-01-15T13:50:33.980Z,99962.88
2023-01-15T13:53:14.233Z,99972.53
2023-01-15T13:55:53.086Z,99970.81
2023-01-15T13:58:28.387Z,99968.72
2023-01-15T14:01:17.381Z,99980.81
2023-01-15T14:04:05.066Z,99967.72
2023-01-15T14:06:45.757Z,99979.16
2023-01-15T14:09:34.293Z,99991.13
2023-01-15T14:12:36.521Z,99992.94
2023-01-15T14:15:28.086Z,99993.09
2023-01-15T14:18:23.733Z,99979.50
2023-01-15T14:21:34.931Z,99988.16
2023-01-15T14:24:29.661Z,99992.69
2023-01-15T14:27:44.280Z,100004.00
2023-01-15T14:31:01.467Z,100006.84
2023-01-15T14:33:49.909Z,99999.66
2023-01-15T14:36:31.876Z,100002.31
2023-01-15T14:39:02.218Z,100000.22
2023-01-15T14:41:33.403Z,100007.81
2023-01-15T14:44:02.275Z,99998.94
2023-01-15T14:46:35.026Z,99999.94
2023-01-15T14:49:02.485Z,100010.09
2023-01-15T14:51:45.653Z,100001.03
2023-01-15T14:54:18.556Z,99999.22
2023-01-15T14:56:55.502Z,100011.50
2023-01-15T14:59:52.544Z,100008.81
2023-01-15T15:02:25.542Z,100001.63
2023-01-15T15:04:56.173Z,100008.63
2023-01-15T15:07:26.909Z,99994.56
2023-01-15T15:10:06.747Z,100012.41
2023-01-15T15:12:46.508Z,99997.63
2023-01-15T15:15:25.270Z,99974.44
2023-01-15T15:18:15.719Z,99992.31
2023-01-15T15:20:51.445Z,99997.47
2023-01-15T15:23:36.887Z,99978.88
2023-01-15T15:26:18.006Z,100008.94
2023-01-15T15:29:00.042Z,100002.59
2023-01-15T15:31:31.466Z,100001.63
2023-01-15T15:33:59.134Z,100016.28
2023-01-15T15:36:32.737Z,100002.72
2023-01-15T15:39:14.549Z,100027.88
2023-01-15T15:42:03.348Z,100021.78
2023-01-15T15:45:11.974Z,100019.13
2023-01-15T15:48:00.424Z,100012.28
2023-01-15T15:50:35.174Z,100004.09
2023-01-15T15:53:06.920Z,100003.75
2023-01-15T15:55:47.830Z,100008.66
2023-01-15T15:58:40.907Z,99996.22
2023-01-15T16:01:13.577Z,99990.75
2023-01-15T16:03:50.740Z,99999.69
2023-01-15T16:06:23.758Z,99992.31
2023-01-15T16:09:04.892Z,99993.22
2023-01-15T16:11:33.836Z,99984.81
2023-01-15T16:14:07.031Z,99960.00
2023-01-15T16:16:34.696Z,99962.22
2023-01-15T16:19:03.018Z,99952.69
2023-01-15T16:21:36.551Z,99955.94
2023-01-15T16:24:26.748Z,99959.81
2023-01-15T16:27:09.172Z,99964.94
2023-01-15T16:29:36.703Z,99969.31
2023-01-15T16:32:14.506Z,99972.78
2023-01-15T16:34:42.150Z,99994.03
2023-01-15T16:37:30.740Z,99981.78
2023-01-15T16:40:01.878Z,99966.44
2023-01-15T16:42:37.690Z,99949.47
2023-01-15T16:45:19.570Z,99943.94
2023-01-15T16:48:24.989Z,99934.84
2023-01-15T16:50:53.350Z,99936.69
2023-01-15T16:53:53.769Z,99942.41
2023-01-15T16:56:36.083Z,99943.13
2023-01-15T16:59:31.007Z,99912.75
2023-01-15T17:02:16.180Z,99889.28
2023-01-15T17:04:45.306Z,99898.91
2023-01-15T17:07:52.521Z,99897.34
2023-01-15T17:10:28.486Z,99886.28
2023-01-15T17:12:58.762Z,99886.63
2023-01-15T17:15:25.648Z,99877.44
2023-01-15T17:17:56.437Z,99870.81
2023-01-15T17:20:28.052Z,99873.34
2023-01-15T17:22:59.152Z,99863.94
2023-01-15T17:25:35.155Z,99865.00
2023-01-15T17:28:04.072Z,99857.53
2023-01-15T17:30:32.214Z,99843.41
2023-01-15T17:33:01.531Z,99850.50
2023-01-15T17:35:34.126Z,99853.38
2023-01-15T17:38:01.193Z,99849.41
2023-01-15T17:40:28.997Z,99847.97
2023-01-15T17:42:56.276Z,99846.75
2023-01-15T17:45:27.474Z,99843.78
2023-01-15T17:47:54.657Z,99846.44
2023-01-15T17:50:23.159Z,99842.41
2023-01-15T17:52:50.633Z,99833.75
2023-01-15T17:55:40.166Z,99834.63
2023-01-15T17:58:27.108Z,99835.47
2023-01-15T18:01:17.444Z,99825.28
2023-01-15T18:04:08.923Z,99816.56
2023-01-15T18:06:40.482Z,99817.16
2023-01-15T18:09:08.347Z,99804.38
2023-01-15T18:11:36.024Z,99804.13
2023-01-15T18:14:03.399Z,99799.03
2023-01-15T18:16:30.607Z,99793.34
2023-01-15T18:18:57.625Z,99783.13
2023-01-15T18:21:24.868Z,99780.81
2023-01-15T18:23:51.870Z,99774.06
2023-01-15T18:26:18.965Z,99785.75
2023-01-15T18:28:46.984Z,99776.47
2023-01-15T18:31:14.430Z,99765.25
2023-01-15T18:33:41.496Z,99765.69
2023-01-15T18:36:11.894Z,99767.28
2023-01-15T18:38:43.737Z,99758.13
2023-01-15T18:41:34.261Z,99758.00
2023-01-15T18:44:32.833Z,99757.56
2023-01-15T18:47:08.554Z,99751.44
2023-01-15T18:49:36.850Z,99752.81
2023-01-15T18:52:22.942Z,99748.22
2023-01-15T18:54:50.005Z,99735.25
2023-01-15T18:57:17.032Z,99733.91
2023-01-15T18:59:47.434Z,99732.50
2023-01-15T19:02:21.149Z,99716.66
2023-01-15T19:04:48.791Z,99711.56
2023-01-15T19:07:16.468Z,99713.78
2023-01-15T19:09:43.575Z,99702.16
2023-01-15T19:12:10.599Z,99704.91
2023-01-15T19:14:56.111Z,99698.63
2023-01-15T19:17:44.386Z,99696.00
2023-01-15T19:20:15.411Z,99694.44
2023-01-15T19:23:02.239Z,99683.94
2023-01-15T19:25:51.332Z,99689.47
2023-01-15T19:28:20.637Z,99666.94
2023-01-15T19:31:07.856Z,99666.63
2023-01-15T19:33:37.858Z,99657.00
2023-01-15T19:36:05.612Z,99645.66
2023-01-15T19:38:36.289Z,99656.88
2023-01-15T19:41:30.969Z,99642.16
2023-01-15T19:44:17.007Z,99641.16
2023-01-15T19:47:05.190Z,99640.91
2023-01-15T19:49:58.118Z,99636.41
2023-01-15T19:52:37.842Z,99624.44
2023-01-15T19:55:08.727Z,99626.34
2023-01-15T19:57:35.670Z,99620.75
2023-01-15T20:00:07.208Z,99624.72
2023-01-15T20:02:35.103Z,99592.41
2023-01-15T20:05:03.285Z,99605.88
2023-01-15T20:07:30.627Z,99625.75
2023-01-15T20:09:57.659Z,99606.38
2023-01-15T20:12:43.033Z,99618.28
2023-01-15T20:15:10.193Z,99607.44
2023-01-15T20:17:37.222Z,99615.25
2023-01-15T20:20:04.935Z,99631.84
2023-01-15T20:22:34.917Z,99628.78
2023-01-15T20:25:01.900Z,99625.03
2023-01-15T20:27:32.592Z,99642.59
2023-01-15T20:30:01.208Z,99640.00
2023-01-15T20:32:31.636Z,99656.75
2023-01-15T20:34:58.577Z,99644.34
2023-01-15T20:37:25.726Z,99630.50
2023-01-15T20:39:52.791Z,99639.94
2023-01-15T20:42:38.788Z,99646.91
2023-01-15T20:45:13.607Z,99644.41
2023-01-15T20:48:01.595Z,99640.53
2023-01-15T20:50:36.205Z,99644.66
2023-01-15T20:53:05.636Z,99633.75
2023-01-15T20:55:55.926Z,99637.75
2023-01-15T20:58:24.988Z,99642.13
2023-01-15T21:00:53.577Z,99621.06
2023-01-15T21:03:20.840Z,99615.06
2023-01-15T21:05:48.080Z,99601.56
2023-01-15T21:08:15.210Z,99609.06
2023-01-15T21:10:42.321Z,99617.13
2023-01-15T21:13:09.367Z,99619.91
2023-01-15T21:15:36.619Z,99622.59
2023-01-15T21:18:03.784Z,99616.75
2023-01-15T21:20:30.759Z,99615.56
2023-01-15T21:22:58.190Z,99620.66
2023-01-15T21:25:25.612Z,99609.91
2023-01-15T21:27:52.930Z,99616.56
2023-01-15T21:30:25.686Z,99606.63
2023-01-15T21:32:55.745Z,99607.72
2023-01-15T21:35:26.026Z,99615.97
2023-01-15T21:37:53.025Z,99595.28
2023-01-15T21:40:20.036Z,99590.16
2023-01-15T21:43:08.587Z,99594.94
2023-01-15T21:45:37.985Z,99600.13
2023-01-15T21:48:05.132Z,99591.78
2023-01-15T21:50:32.155Z,99582.03
2023-01-15T21:52:59.123Z,99592.59
2023-01-15T21:55:27.208Z,99593.31
2023-01-15T21:57:54.136Z,99591.44
2023-01-15T22:00:21.350Z,99588.31
2023-01-15T22:02:49.740Z,99596.09
2023-01-15T22:05:20.324Z,99599.28
2023-01-15T22:07:47.516Z,99584.63
2023-01-15T22:10:14.492Z,99576.75
2023-01-15T22:12:43.192Z,99579.88
2023-01-15T22:15:11.719Z,99573.66
2023-01-15T22:17:38.854Z,99568.16
2023-01-15T22:20:07.202Z,99561.75
2023-01-15T22:22:38.754Z,99559.38
2023-01-15T22:25:08.490Z,99557.03
2023-01-15T22:27:40.612Z,99547.19
2023-01-15T22:30:13.033Z,99534.97
2023-01-15T22:32:40.089Z,99550.06
2023-01-15T22:35:08.431Z,99541.44
2023-01-15T22:37:35.380Z,99524.13
2023-01-15T22:40:02.350Z,99518.84
2023-01-15T22:42:31.172Z,99507.88
2023-01-15T22:45:00.434Z,99499.41
2023-01-15T22:47:29.352Z,99492.91
2023-01-15T22:49:56.613Z,99487.72
2023-01-15T22:52:25.678Z,99493.69
2023-01-15T22:54:53.651Z,99490.34
2023-01-15T22:57:20.767Z,99485.44
2023-01-15T22:59:47.884Z,99490.25
2023-01-15T23:02:15.026Z,99480.03
2023-01-15T23:04:42.301Z,99461.63
2023-01-15T23:07:10.053Z,99474.53
2023-01-15T23:09:37.245Z,99460.94
2023-01-15T23:12:04.518Z,99457.47
2023-01-15T23:14:33.832Z,99451.75
2023-01-15T23:17:01.220Z,99444.38
2023-01-15T23:19:28.345Z,99446.94
2023-01-15T23:22:01.237Z,99427.25
2023-01-15T23:24:28.248Z,99428.19
2023-01-15T23:26:55.213Z,99416.47
2023-01-15T23:29:22.330Z,99418.00
2023-01-15T23:31:49.373Z,99403.63
2023-01-15T23:34:16.477Z,99405.41
2023-01-15T23:36:43.441Z,99394.75
2023-01-15T23:39:10.488Z,99395.25
2023-01-15T23:41:58.989Z,99396.41
2023-01-15T23:44:44.511Z,99387.84
2023-01-15T23:47:11.485Z,99369.66
2023-01-15T23:49:38.568Z,99368.63
2023-01-15T23:52:06.201Z,99358.13
2023-01-15T23:54:33.351Z,99342.03
2023-01-15T23:57:01.984Z,99352.06
2023-01-15T23:59:29.647Z,99340.50
